createdAt,value
2018-02-14T00:01:20.437Z,-0.90
2018-02-14T00:03:49.851Z,-1.00
2018-02-14T00:06:18.568Z,-1.00
2018-02-14T00:08:47.243Z,-0.90
2018-02-14T00:11:15.901Z,-0.90
2018-02-14T00:13:45.342Z,-0.90
2018-02-14T00:16:14.082Z,-0.90
2018-02-14T00:18:43.821Z,-1.00
2018-02-14T00:21:13.295Z,-1.00
2018-02-14T00:23:42.835Z,-1.00
2018-02-14T00:26:11.494Z,-1.00
2018-02-14T00:28:40.976Z,-1.00
2018-02-14T00:31:09.627Z,-1.00
2018-02-14T00:33:38.271Z,-1.00
2018-02-14T00:36:07.080Z,-1.00
2018-02-14T00:38:35.759Z,-1.00
2018-02-14T00:41:04.599Z,-0.90
2018-02-14T00:43:33.402Z,-0.90
2018-02-14T00:46:02.094Z,-0.90
2018-02-14T00:48:31.540Z,-0.90
2018-02-14T00:51:00.311Z,-0.90
2018-02-14T00:53:29.248Z,-0.90
2018-02-14T00:55:57.953Z,-0.90
2018-02-14T00:58:27.476Z,-1.00
2018-02-14T01:00:57.541Z,-1.00
2018-02-14T01:03:27.340Z,-0.90
2018-02-14T01:05:56.130Z,-0.90
2018-02-14T01:08:24.860Z,-1.00
2018-02-14T01:10:53.527Z,-0.90
2018-02-14T01:13:23.644Z,-1.00
2018-02-14T01:15:52.320Z,-1.00
2018-02-14T01:18:20.964Z,-1.00
2018-02-14T01:20:49.830Z,-1.00
2018-02-14T01:23:19.239Z,-1.10
2018-02-14T01:25:48.708Z,-1.20
2018-02-14T01:28:17.564Z,-1.20
2018-02-14T01:30:46.232Z,-1.20
2018-02-14T01:33:14.961Z,-1.20
2018-02-14T01:35:43.873Z,-1.20
2018-02-14T01:38:12.545Z,-1.20
2018-02-14T01:40:41.394Z,-1.40
2018-02-14T01:43:10.184Z,-1.50
2018-02-14T01:45:38.838Z,-1.50
2018-02-14T01:48:08.341Z,-1.60
2018-02-14T01:50:39.133Z,-1.60
2018-02-14T01:53:07.959Z,-1.50
2018-02-14T01:55:37.659Z,-1.50
2018-02-14T01:58:07.096Z,-1.60
2018-02-14T02:00:35.799Z,-1.70
2018-02-14T02:03:04.466Z,-1.70
2018-02-14T02:05:33.125Z,-2.00
2018-02-14T02:08:01.829Z,-2.00
2018-02-14T02:10:30.507Z,-2.20
2018-02-14T02:13:00.275Z,-2.50
2018-02-14T02:15:28.998Z,-2.60
2018-02-14T02:17:58.398Z,-2.80
2018-02-14T02:20:27.131Z,-2.90
2018-02-14T02:22:55.785Z,-2.90
2018-02-14T02:25:24.499Z,-3.00
2018-02-14T02:27:53.180Z,-3.10
2018-02-14T02:32:51.676Z,-3.30
2018-02-14T02:35:20.322Z,-3.40
2018-02-14T02:37:48.952Z,-3.40
2018-02-14T02:40:28.659Z,-3.40
2018-02-14T02:42:58.287Z,-3.40
2018-02-14T02:45:26.943Z,-3.40
2018-02-14T02:47:56.404Z,-3.50
2018-02-14T02:50:25.036Z,-3.50
2018-02-14T02:55:29.696Z,-3.80
2018-02-14T02:57:58.352Z,-3.70
2018-02-14T03:00:27.756Z,-3.60
2018-02-14T03:02:57.186Z,-3.50
2018-02-14T03:05:25.856Z,-3.50
2018-02-14T03:07:55.070Z,-3.20
2018-02-14T03:10:23.736Z,-3.30
2018-02-14T03:12:53.142Z,-3.20
2018-02-14T03:15:22.755Z,-3.10
2018-02-14T03:17:51.406Z,-3.10
2018-02-14T03:20:20.050Z,-3.00
2018-02-14T03:22:48.696Z,-2.90
2018-02-14T03:25:18.100Z,-2.40
2018-02-14T03:27:46.756Z,-2.50
2018-02-14T03:30:15.404Z,-2.20
2018-02-14T03:32:44.043Z,-2.10
2018-02-14T03:35:13.457Z,-2.00
2018-02-14T03:37:42.861Z,-1.90
2018-02-14T03:40:12.283Z,-1.80
2018-02-14T03:42:40.723Z,-1.90
2018-02-14T03:45:10.127Z,-1.70
2018-02-14T03:47:39.535Z,-1.60
2018-02-14T03:50:09.301Z,-2.00
2018-02-14T03:52:38.012Z,-1.60
2018-02-14T03:55:06.698Z,-1.60
2018-02-14T03:57:35.184Z,-1.60
2018-02-14T04:00:03.856Z,-1.60
2018-02-14T04:02:32.500Z,-1.60
2018-02-14T04:05:00.981Z,-1.60
2018-02-14T04:07:29.643Z,-1.60
2018-02-14T04:09:59.249Z,-1.70
2018-02-14T04:12:28.671Z,-1.80
2018-02-14T04:14:57.334Z,-1.80
2018-02-14T04:17:26.765Z,-1.80
2018-02-14T04:19:55.398Z,-1.80
2018-02-14T04:22:24.032Z,-1.90
2018-02-14T04:24:52.515Z,-1.90
2018-02-14T04:27:21.151Z,-1.90
2018-02-14T04:29:49.881Z,-1.90
2018-02-14T04:32:18.519Z,-2.10
2018-02-14T04:34:47.157Z,-2.00
2018-02-14T04:37:15.800Z,-2.00
2018-02-14T04:39:44.430Z,-2.10
2018-02-14T04:42:13.086Z,-2.10
2018-02-14T04:44:41.739Z,-2.10
2018-02-14T04:47:10.369Z,-2.10
2018-02-14T04:49:39.031Z,-2.10
2018-02-14T04:52:08.435Z,-2.20
2018-02-14T04:54:37.859Z,-2.20
2018-02-14T04:57:06.879Z,-2.40
2018-02-14T04:59:35.518Z,-2.30
2018-02-14T05:02:04.250Z,-2.30
2018-02-14T05:04:32.891Z,-2.40
2018-02-14T05:07:02.308Z,-2.40
2018-02-14T05:09:31.707Z,-2.40
2018-02-14T05:12:00.378Z,-2.40
2018-02-14T05:14:29.187Z,-2.40
2018-02-14T05:16:57.870Z,-2.40
2018-02-14T05:19:26.605Z,-2.50
2018-02-14T05:21:55.448Z,-2.60
2018-02-14T05:24:24.087Z,-2.70
2018-02-14T05:26:52.747Z,-2.70
2018-02-14T05:29:21.371Z,-2.70
2018-02-14T05:31:50.801Z,-2.80
2018-02-14T05:34:19.443Z,-2.80
2018-02-14T05:36:48.130Z,-2.70
2018-02-14T05:39:16.784Z,-2.70
2018-02-14T05:41:47.146Z,-2.80
2018-02-14T05:44:15.803Z,-2.80
2018-02-14T05:46:44.444Z,-2.70
2018-02-14T05:49:13.093Z,-2.80
2018-02-14T05:51:41.791Z,-2.80
2018-02-14T05:54:10.422Z,-2.80
2018-02-14T05:56:39.097Z,-2.90
2018-02-14T05:59:07.743Z,-3.00
2018-02-14T06:01:36.194Z,-2.90
2018-02-14T06:04:04.882Z,-2.70
2018-02-14T06:06:34.315Z,-2.60
2018-02-14T06:09:03.412Z,-2.50
2018-02-14T06:11:32.815Z,-2.40
2018-02-14T06:14:02.607Z,-2.50
2018-02-14T06:19:00.911Z,-2.30
2018-02-14T06:21:30.336Z,-2.30
2018-02-14T06:23:58.984Z,-2.40
2018-02-14T06:26:28.415Z,-2.30
2018-02-14T06:28:57.853Z,-2.40
2018-02-14T06:39:01.598Z,-3.00
2018-02-14T06:41:30.335Z,-2.40
2018-02-14T07:04:27.856Z,-2.80
2018-02-14T07:06:56.496Z,-2.80
2018-02-14T07:09:25.148Z,-2.80
2018-02-14T07:11:53.795Z,-2.70
2018-02-14T07:14:23.225Z,-2.40
2018-02-14T07:16:51.872Z,-2.40
2018-02-14T07:46:59.625Z,-0.90
2018-02-14T07:49:28.342Z,-0.90
2018-02-14T07:54:26.660Z,-0.80
2018-02-14T07:56:55.053Z,-0.70
2018-02-14T07:59:23.444Z,-0.50
2018-02-14T08:01:52.589Z,0.30
2018-02-14T08:04:20.963Z,0.30
2018-02-14T08:06:49.363Z,0.50
2018-02-14T08:09:17.776Z,0.90
2018-02-14T08:11:46.939Z,1.00
2018-02-14T08:14:15.352Z,1.00
2018-02-14T08:16:43.752Z,1.00
2018-02-14T08:19:12.127Z,0.80
2018-02-14T08:21:40.580Z,1.40
2018-02-14T08:24:08.952Z,1.80
2018-02-14T08:26:37.332Z,2.20
2018-02-14T08:29:05.711Z,2.30
2018-02-14T08:31:34.107Z,2.30
2018-02-14T08:34:03.274Z,3.20
2018-02-14T08:36:31.719Z,3.10
2018-02-14T08:39:00.113Z,3.10
2018-02-14T08:41:28.491Z,3.30
2018-02-14T08:43:56.881Z,3.70
2018-02-14T08:46:25.280Z,4.00
2018-02-14T08:48:53.663Z,4.50
2018-02-14T08:51:22.808Z,4.00
2018-02-14T08:53:51.205Z,4.00
2018-02-14T08:56:19.585Z,3.40
2018-02-14T08:58:47.970Z,3.90
2018-02-14T09:01:16.350Z,4.40
2018-02-14T09:03:44.740Z,4.90
2018-02-14T09:06:13.138Z,5.30
2018-02-14T09:08:42.304Z,6.20
2018-02-14T09:11:10.677Z,6.20
2018-02-14T09:13:39.045Z,6.30
2018-02-14T09:16:07.440Z,6.50
2018-02-14T09:18:35.805Z,6.60
2018-02-14T09:21:04.204Z,6.30
2018-02-14T09:23:32.584Z,5.90
2018-02-14T09:26:00.974Z,5.70
2018-02-14T09:28:30.110Z,5.60
2018-02-14T09:30:58.500Z,5.50
2018-02-14T09:33:26.893Z,4.80
2018-02-14T09:35:55.961Z,5.20
2018-02-14T09:38:24.336Z,5.20
2018-02-14T09:40:52.719Z,6.00
2018-02-14T09:43:21.086Z,6.50
2018-02-14T09:45:49.476Z,6.70
2018-02-14T09:48:17.849Z,6.30
2018-02-14T09:50:46.229Z,6.60
2018-02-14T09:53:14.611Z,7.30
2018-02-14T09:55:42.812Z,5.90
2018-02-14T09:58:11.177Z,5.60
2018-02-14T10:00:39.361Z,6.40
2018-02-14T10:03:09.121Z,7.10
2018-02-14T10:05:38.345Z,7.30
2018-02-14T10:08:06.729Z,7.30
2018-02-14T10:10:35.115Z,7.20
2018-02-14T10:13:03.511Z,7.50
2018-02-14T10:15:31.885Z,7.90
2018-02-14T10:18:01.047Z,7.70
2018-02-14T10:20:29.421Z,7.70
2018-02-14T10:22:57.824Z,8.10
2018-02-14T10:25:26.209Z,8.00
2018-02-14T10:27:55.353Z,8.00
2018-02-14T10:30:24.492Z,8.30
2018-02-14T10:32:52.864Z,8.20
2018-02-14T10:35:21.234Z,8.30
2018-02-14T10:37:49.716Z,7.80
2018-02-14T10:40:18.096Z,7.70
2018-02-14T10:42:47.479Z,7.90
2018-02-14T10:45:16.008Z,7.90
2018-02-14T10:47:44.456Z,8.20
2018-02-14T10:50:13.764Z,9.00
2018-02-14T10:52:42.133Z,9.00
2018-02-14T10:55:10.525Z,9.40
2018-02-14T10:57:38.890Z,9.80
2018-02-14T11:00:06.749Z,9.60
2018-02-14T11:02:40.680Z,9.40
2018-02-14T11:05:14.583Z,9.30
2018-02-14T11:07:42.958Z,9.30
2018-02-14T11:10:12.476Z,8.60
2018-02-14T11:17:39.656Z,8.70
2018-02-14T11:20:08.785Z,8.90
2018-02-14T11:22:37.168Z,8.80
2018-02-14T11:25:05.532Z,8.70
2018-02-14T11:27:33.924Z,8.70
2018-02-14T11:30:03.055Z,9.20
2018-02-14T11:32:31.504Z,9.10
2018-02-14T11:35:04.079Z,9.40
2018-02-14T11:37:33.237Z,9.40
2018-02-14T11:40:01.609Z,9.40
2018-02-14T11:42:29.987Z,9.20
2018-02-14T11:44:58.429Z,9.40
2018-02-14T11:47:26.873Z,9.60
2018-02-14T11:49:55.239Z,9.80
2018-02-14T11:52:24.382Z,9.50
2018-02-14T11:54:53.508Z,9.40
2018-02-14T11:57:21.894Z,9.30
2018-02-14T11:59:50.271Z,9.60
2018-02-14T12:02:18.694Z,9.40
2018-02-14T12:04:47.276Z,9.60
2018-02-14T12:07:16.425Z,10.10
2018-02-14T12:09:44.820Z,10.10
2018-02-14T12:12:13.213Z,10.10
2018-02-14T12:14:41.605Z,10.00
2018-02-14T12:17:09.783Z,9.90
2018-02-14T12:19:38.930Z,10.10
2018-02-14T12:22:07.308Z,10.10
2018-02-14T12:24:35.700Z,10.10
2018-02-14T12:27:04.075Z,10.10
2018-02-14T12:29:33.255Z,10.10
2018-02-14T12:32:01.628Z,10.10
2018-02-14T12:34:30.030Z,10.30
2018-02-14T12:36:58.400Z,10.20
2018-02-14T12:39:26.789Z,10.30
2018-02-14T12:41:55.197Z,10.20
2018-02-14T12:44:23.587Z,10.00
2018-02-14T12:46:52.727Z,9.90
2018-02-14T12:49:21.140Z,9.90
2018-02-14T12:51:49.513Z,9.60
2018-02-14T12:54:17.881Z,9.80
2018-02-14T12:56:46.283Z,9.30
2018-02-14T12:59:15.786Z,9.20
2018-02-14T13:01:44.172Z,9.20
2018-02-14T13:04:13.308Z,9.60
2018-02-14T13:06:41.733Z,9.60
2018-02-14T13:09:10.887Z,9.80
2018-02-14T13:11:38.939Z,9.80
2018-02-14T13:14:07.331Z,10.00
2018-02-14T13:16:35.748Z,9.90
2018-02-14T13:19:04.964Z,9.50
2018-02-14T13:21:33.807Z,9.40
2018-02-14T13:24:02.170Z,9.40
2018-02-14T13:26:30.571Z,9.30
2018-02-14T13:28:58.959Z,8.80
2018-02-14T13:31:27.337Z,8.80
2018-02-14T13:33:55.713Z,8.80
2018-02-14T13:36:24.136Z,8.80
2018-02-14T13:38:53.305Z,8.30
2018-02-14T13:41:21.682Z,8.30
2018-02-14T13:43:50.083Z,8.10
2018-02-14T13:46:19.230Z,8.40
2018-02-14T13:48:47.596Z,8.40
2018-02-14T13:51:15.985Z,8.60
2018-02-14T13:53:44.364Z,8.60
2018-02-14T13:56:12.749Z,8.30
2018-02-14T13:58:41.142Z,8.10
2018-02-14T14:01:09.507Z,8.20
2018-02-14T14:03:37.879Z,8.40
2018-02-14T14:06:06.313Z,8.50
2018-02-14T14:08:37.155Z,8.50
2018-02-14T14:11:06.312Z,8.60
2018-02-14T14:13:34.717Z,8.60
2018-02-14T14:16:03.861Z,8.30
2018-02-14T14:18:32.305Z,8.30
2018-02-14T14:21:00.877Z,8.00
2018-02-14T14:23:30.025Z,7.50
2018-02-14T14:25:58.225Z,7.50
2018-02-14T14:28:26.604Z,7.40
2018-02-14T14:30:55.032Z,7.40
2018-02-14T14:33:23.433Z,7.50
2018-02-14T14:35:51.801Z,7.50
2018-02-14T14:38:20.168Z,7.40
2018-02-14T14:40:48.567Z,7.20
2018-02-14T14:43:16.947Z,6.90
2018-02-14T14:45:45.347Z,6.70
2018-02-14T14:48:13.740Z,6.20
2018-02-14T14:50:42.108Z,5.90
2018-02-14T14:53:10.499Z,5.60
2018-02-14T14:55:38.904Z,5.50
2018-02-14T14:58:07.283Z,5.30
2018-02-14T15:00:35.664Z,5.30
2018-02-14T15:03:06.052Z,5.00
2018-02-14T15:05:34.448Z,4.90
2018-02-14T15:08:03.594Z,4.70
2018-02-14T15:10:32.004Z,4.70
2018-02-14T15:13:00.385Z,4.70
2018-02-14T15:15:28.839Z,4.60
2018-02-14T15:17:57.239Z,4.60
2018-02-14T15:20:25.612Z,4.50
2018-02-14T15:22:53.992Z,4.50
2018-02-14T15:25:22.401Z,4.50
2018-02-14T15:27:51.556Z,4.20
2018-02-14T15:30:19.945Z,4.20
2018-02-14T15:32:48.350Z,4.30
2018-02-14T15:35:17.494Z,4.30
2018-02-14T15:37:45.869Z,4.30
2018-02-14T15:40:14.391Z,4.20
2018-02-14T15:42:42.937Z,4.20
2018-02-14T15:45:11.344Z,4.10
2018-02-14T15:47:39.746Z,4.00
2018-02-14T15:50:08.891Z,4.00
2018-02-14T15:52:37.264Z,3.90
2018-02-14T15:55:05.696Z,3.90
2018-02-14T15:57:34.696Z,3.90
2018-02-14T16:00:03.493Z,3.80
2018-02-14T16:02:31.998Z,3.80
2018-02-14T16:05:00.374Z,3.90
2018-02-14T16:07:28.860Z,3.80
2018-02-14T16:09:57.259Z,3.80
2018-02-14T16:12:25.672Z,3.80
2018-02-14T16:14:54.833Z,3.60
2018-02-14T16:17:23.304Z,3.60
2018-02-14T16:19:51.683Z,3.60
2018-02-14T16:22:20.065Z,3.50
2018-02-14T16:24:48.501Z,3.50
2018-02-14T16:27:16.872Z,3.40
2018-02-14T16:29:46.020Z,3.30
2018-02-14T16:32:14.415Z,3.20
2018-02-14T16:34:42.801Z,3.20
2018-02-14T16:37:11.173Z,3.10
2018-02-14T16:39:39.645Z,3.10
2018-02-14T16:42:08.160Z,3.10
2018-02-14T16:44:37.296Z,2.90
2018-02-14T16:47:05.709Z,2.90
2018-02-14T16:49:34.119Z,2.90
2018-02-14T16:52:03.263Z,2.80
2018-02-14T16:54:31.660Z,2.80
2018-02-14T16:57:00.281Z,2.70
2018-02-14T16:59:28.620Z,2.70
2018-02-14T17:01:57.028Z,2.60
2018-02-14T17:04:26.183Z,2.60
2018-02-14T17:06:54.640Z,2.60
2018-02-14T17:09:23.044Z,2.60
2018-02-14T17:11:51.436Z,2.60
2018-02-14T17:14:19.816Z,2.50
2018-02-14T17:16:48.276Z,2.50
2018-02-14T17:19:16.648Z,2.50
2018-02-14T17:21:45.030Z,2.40
2018-02-14T17:24:14.218Z,2.40
2018-02-14T17:26:42.592Z,2.40
2018-02-14T17:29:11.088Z,2.40
2018-02-14T17:31:39.492Z,2.40
2018-02-14T17:34:07.919Z,2.40
2018-02-14T17:36:36.311Z,2.30
2018-02-14T17:39:03.861Z,2.40
2018-02-14T17:41:32.254Z,2.40
2018-02-14T17:44:01.417Z,2.40
2018-02-14T17:46:29.818Z,2.40
2018-02-14T17:48:58.205Z,2.40
2018-02-14T17:51:26.585Z,2.40
2018-02-14T17:53:55.004Z,2.40
2018-02-14T17:56:24.164Z,2.40
2018-02-14T17:58:52.534Z,2.40
2018-02-14T18:01:20.945Z,2.40
2018-02-14T18:03:49.460Z,2.30
2018-02-14T18:06:18.014Z,2.50
2018-02-14T18:08:46.412Z,2.50
2018-02-14T18:11:15.556Z,2.50
2018-02-14T18:13:43.995Z,2.50
2018-02-14T18:16:12.398Z,2.50
2018-02-14T18:18:40.817Z,2.60
2018-02-14T18:21:09.185Z,2.60
2018-02-14T18:23:37.659Z,2.70
2018-02-14T18:26:06.036Z,2.60
2018-02-14T18:28:34.456Z,2.70
2018-02-14T18:31:03.460Z,2.70
2018-02-14T18:33:31.836Z,2.70
2018-02-14T18:36:01.010Z,2.80
2018-02-14T18:38:29.401Z,2.80
2018-02-14T18:40:58.553Z,2.70
2018-02-14T18:43:27.769Z,2.70
2018-02-14T18:45:56.192Z,2.70
2018-02-14T18:48:24.703Z,2.70
2018-02-14T18:50:53.071Z,2.70
2018-02-14T18:53:21.736Z,2.70
2018-02-14T18:55:50.184Z,2.70
2018-02-14T18:58:18.721Z,2.70
2018-02-14T19:00:49.808Z,2.60
2018-02-14T19:03:18.417Z,2.60
2018-02-14T19:05:46.831Z,2.60
2018-02-14T19:08:22.980Z,2.60
2018-02-14T19:10:51.402Z,2.60
2018-02-14T19:13:19.869Z,2.60
2018-02-14T19:15:48.713Z,2.60
2018-02-14T19:18:17.188Z,2.60
2018-02-14T19:20:45.691Z,2.60
2018-02-14T19:23:14.091Z,2.60
2018-02-14T19:25:42.568Z,2.60
2018-02-14T19:28:11.098Z,2.60
2018-02-14T19:30:40.381Z,2.60
2018-02-14T19:33:09.645Z,2.60
2018-02-14T19:35:38.092Z,2.60
2018-02-14T19:38:06.687Z,2.60
2018-02-14T19:40:35.138Z,2.60
2018-02-14T19:43:04.308Z,2.60
2018-02-14T19:45:35.278Z,2.60
2018-02-14T19:48:03.920Z,2.60
2018-02-14T19:53:10.910Z,2.50
2018-02-14T19:55:39.363Z,2.50
2018-02-14T19:58:08.362Z,2.50
2018-02-14T20:00:37.193Z,2.50
2018-02-14T20:03:05.705Z,2.60
2018-02-14T20:05:34.099Z,2.60
2018-02-14T20:08:02.536Z,2.60
2018-02-14T20:10:30.970Z,2.60
2018-02-14T20:12:59.358Z,2.70
2018-02-14T20:15:27.786Z,2.70
2018-02-14T20:17:57.754Z,2.60
2018-02-14T20:20:26.281Z,2.60
2018-02-14T20:22:57.473Z,2.60
2018-02-14T20:25:25.965Z,2.60
2018-02-14T20:27:54.561Z,2.60
2018-02-14T20:30:22.964Z,2.70
2018-02-14T20:32:51.377Z,2.70
2018-02-14T20:35:19.878Z,2.70
2018-02-14T20:37:48.292Z,2.70
2018-02-14T20:40:16.508Z,2.80
2018-02-14T20:42:44.915Z,2.70
2018-02-14T20:45:13.503Z,2.70
2018-02-14T20:47:42.695Z,2.80
2018-02-14T20:50:11.080Z,2.80
2018-02-14T20:52:39.530Z,2.80
2018-02-14T20:55:08.728Z,2.80
2018-02-14T20:57:37.946Z,2.80
2018-02-14T21:00:06.364Z,2.80
2018-02-14T21:02:36.233Z,2.80
2018-02-14T21:05:04.335Z,2.80
2018-02-14T21:07:32.853Z,2.90
2018-02-14T21:10:02.024Z,2.90
2018-02-14T21:12:30.477Z,2.90
2018-02-14T21:14:58.897Z,3.00
2018-02-14T21:17:28.059Z,2.90
2018-02-14T21:19:57.204Z,2.90
2018-02-14T21:22:28.231Z,2.90
2018-02-14T21:24:56.650Z,2.90
2018-02-14T21:27:25.025Z,3.00
2018-02-14T21:29:53.420Z,3.00
2018-02-14T21:32:21.798Z,2.90
2018-02-14T21:34:50.180Z,3.00
2018-02-14T21:37:18.612Z,2.90
2018-02-14T21:39:47.837Z,2.90
2018-02-14T21:42:16.401Z,2.90
2018-02-14T21:44:44.823Z,2.90
2018-02-14T21:47:13.214Z,2.80
2018-02-14T21:49:41.589Z,2.80
2018-02-14T21:52:09.980Z,2.80
2018-02-14T21:54:38.341Z,2.80
2018-02-14T21:57:06.714Z,2.90
2018-02-14T21:59:35.123Z,2.80
2018-02-14T22:02:03.490Z,2.90
2018-02-14T22:04:32.645Z,2.80
2018-02-14T22:07:01.030Z,2.80
2018-02-14T22:09:29.429Z,2.90
2018-02-14T22:11:57.803Z,2.80
2018-02-14T22:14:26.196Z,2.80
2018-02-14T22:16:54.599Z,2.80
2018-02-14T22:19:23.732Z,2.70
2018-02-14T22:21:52.118Z,2.70
2018-02-14T22:24:20.485Z,2.70
2018-02-14T22:26:48.863Z,2.80
2018-02-14T22:29:17.254Z,2.70
2018-02-14T22:31:45.621Z,2.80
2018-02-14T22:34:13.989Z,2.80
2018-02-14T22:36:42.397Z,2.90
2018-02-14T22:39:10.755Z,2.90
2018-02-14T22:41:39.127Z,2.90
2018-02-14T22:44:07.515Z,2.90
2018-02-14T22:46:35.899Z,2.80
2018-02-14T22:49:04.304Z,2.80
2018-02-14T22:51:32.688Z,2.70
2018-02-14T22:54:01.063Z,2.70
2018-02-14T22:56:29.439Z,2.60
2018-02-14T22:58:57.853Z,2.70
2018-02-14T23:01:26.988Z,2.70
2018-02-14T23:03:55.365Z,2.70
2018-02-14T23:06:23.849Z,2.70
2018-02-14T23:08:53.148Z,2.70
2018-02-14T23:11:21.574Z,2.70
2018-02-14T23:13:50.036Z,2.80
2018-02-14T23:16:18.604Z,2.80
2018-02-14T23:18:47.074Z,2.80
2018-02-14T23:21:18.504Z,2.80
2018-02-14T23:23:46.871Z,2.80
2018-02-14T23:26:15.325Z,2.80
2018-02-14T23:28:43.891Z,2.80
2018-02-14T23:31:12.497Z,2.90
2018-02-14T23:33:40.900Z,3.00
2018-02-14T23:36:09.304Z,3.00
2018-02-14T23:38:37.682Z,3.00
2018-02-14T23:41:06.057Z,3.00
2018-02-14T23:43:34.454Z,3.00
2018-02-14T23:46:02.839Z,3.00
2018-02-14T23:48:31.212Z,3.10
2018-02-14T23:50:59.637Z,3.10
2018-02-14T23:53:28.045Z,3.20
2018-02-14T23:55:56.421Z,3.30
2018-02-14T23:58:24.816Z,3.30
